Market Rasen, United Kingdom
Current Conditions -  °F | °C
As of 10:50 AM on Tuesday 21 Oct 2014 (Local Time) from EGXP Reporting Station
Few Clouds Few Clouds  
Wind Chill: 11°   Ceiling: Unl
Heat Index: 11°   Visibility: 6mi
Dew Point:   Wind: 28mph
Humidity: 67%   Direction: 280°W
Pressure: 29.47"   Gusts: NA
Location:  53.39°N, 0.34°W
Report Text: EGXP 210950Z AUTO 28024KT 9999 // FEW037/// 11/05 Q0998
Loading
Personal Weather Stations






























Interactive Weather Map
Tropical Storm Tracking
New forecast layout! Learn more

10-Day Weather Forecast

Advertisements
Track Severe Weather on mobile